createdAt,value
2023-05-17T00:00:12.661Z,8.2
2023-05-17T00:10:19.025Z,8.2
2023-05-17T00:20:25.351Z,8.2
2023-05-17T00:30:31.738Z,8.2
2023-05-17T00:40:38.045Z,8.1
2023-05-17T00:50:44.368Z,8.1
2023-05-17T01:00:50.729Z,8.1
2023-05-17T01:10:58.729Z,8.1
2023-05-17T01:21:05.029Z,8.1
2023-05-17T01:31:12.954Z,8.1
2023-05-17T01:41:19.317Z,8.1
2023-05-17T01:51:25.643Z,8.1
2023-05-17T02:01:31.982Z,8.1
2023-05-17T02:11:38.358Z,8.1
2023-05-17T02:21:44.697Z,8.1
2023-05-17T02:31:51.026Z,8.1
2023-05-17T02:41:57.371Z,8.1
2023-05-17T02:52:03.695Z,8.1
2023-05-17T03:02:10.075Z,8.1
2023-05-17T03:12:16.443Z,8.1
2023-05-17T03:22:22.742Z,8.1
2023-05-17T03:32:30.858Z,8.1
2023-05-17T03:52:44.982Z,7.7
2023-05-17T04:02:51.485Z,7.6
2023-05-17T04:12:57.709Z,7.6
2023-05-17T04:33:13.493Z,7.7
2023-05-17T04:43:18.335Z,7.8
2023-05-17T04:53:24.690Z,7.9
2023-05-17T05:03:31.052Z,7.8
2023-05-17T05:13:37.461Z,7.8
2023-05-17T05:23:43.715Z,7.9
2023-05-17T05:33:50.167Z,7.9
2023-05-17T05:43:56.432Z,7.8
2023-05-17T06:04:09.106Z,7.9
2023-05-17T06:14:15.477Z,7.8
2023-05-17T06:24:21.780Z,7.7
2023-05-17T06:34:28.140Z,7.8
2023-05-17T06:44:34.489Z,7.8
2023-05-17T06:54:40.836Z,7.8
2023-05-17T07:04:47.199Z,7.7
2023-05-17T07:14:53.531Z,7.7
2023-05-17T07:25:01.447Z,7.8
2023-05-17T07:35:09.434Z,7.7
2023-05-17T07:45:17.366Z,7.7
2023-05-17T07:55:25.527Z,7.7
2023-05-17T08:05:31.901Z,7.8
2023-05-17T08:15:37.995Z,7.9
2023-05-17T08:25:44.333Z,7.9
2023-05-17T08:35:50.685Z,8
2023-05-17T08:45:57.032Z,7.9
2023-05-17T08:56:03.350Z,7.8
2023-05-17T09:06:09.709Z,7.6
2023-05-17T09:26:22.389Z,7.7
2023-05-17T09:36:28.763Z,7.7
2023-05-17T09:46:35.104Z,7.9
2023-05-17T09:56:41.534Z,7.8
2023-05-17T10:06:50.732Z,7.8
2023-05-17T10:16:54.174Z,7.8
2023-05-17T10:27:00.485Z,7.8
2023-05-17T10:37:06.849Z,7.6
2023-05-17T10:47:13.174Z,7.5
2023-05-17T10:57:19.531Z,7.6
2023-05-17T11:07:25.854Z,7.3
2023-05-17T11:17:33.882Z,7.1
2023-05-17T11:27:41.744Z,7.2
2023-05-17T11:37:49.712Z,7.1
2023-05-17T11:47:57.763Z,7.2
2023-05-17T11:58:05.603Z,7.4
2023-05-17T12:08:13.563Z,7.4
2023-05-17T12:18:21.503Z,7.6
2023-05-17T12:28:28.019Z,7.7
2023-05-17T12:38:34.169Z,7.9
2023-05-17T12:48:40.572Z,8
2023-05-17T12:58:46.892Z,8
2023-05-17T13:08:53.213Z,8
2023-05-17T13:18:59.670Z,8.1
2023-05-17T13:29:05.916Z,8.1
2023-05-17T13:39:12.265Z,8.2
2023-05-17T13:49:18.624Z,8.2
2023-05-17T13:59:24.972Z,8.3
2023-05-17T14:09:31.281Z,8.3
2023-05-17T14:19:37.706Z,8.3
2023-05-17T14:29:43.982Z,8.4
2023-05-17T14:40:05.378Z,8.4
2023-05-17T14:49:56.668Z,8.4
2023-05-17T15:00:03.004Z,8.4
2023-05-17T15:10:09.346Z,8.4
2023-05-17T15:20:15.784Z,8.4
2023-05-17T15:30:22.067Z,8.5
2023-05-17T15:40:29.972Z,8.5
2023-05-17T15:50:37.947Z,8.5
2023-05-17T16:00:45.893Z,8.5
2023-05-17T16:10:53.830Z,8.5
2023-05-17T16:21:01.805Z,8.5
2023-05-17T16:31:09.801Z,8.5
2023-05-17T16:41:16.081Z,8.5
2023-05-17T16:51:22.488Z,8.5
2023-05-17T17:01:28.803Z,8.5
2023-05-17T17:11:35.153Z,8.5
2023-05-17T17:21:41.469Z,8.5
2023-05-17T17:31:47.837Z,8.5
2023-05-17T17:41:54.151Z,8.5
2023-05-17T17:52:00.532Z,8.5
2023-05-17T18:02:06.858Z,8.6
2023-05-17T18:22:19.540Z,8.5
2023-05-17T18:32:25.995Z,8.6
2023-05-17T18:42:32.256Z,8.6
2023-05-17T18:52:38.586Z,8.6
2023-05-17T19:02:45.025Z,8.6
2023-05-17T19:22:59.200Z,8.6
2023-05-17T19:33:07.211Z,8.6
2023-05-17T19:43:15.116Z,8.6
2023-05-17T19:53:23.080Z,8.4
2023-05-17T20:03:31.134Z,8.4
2023-05-17T20:13:38.967Z,8.4
2023-05-17T20:23:46.899Z,8.4
2023-05-17T20:33:54.855Z,8.4
2023-05-17T20:44:02.805Z,8.4
2023-05-17T20:54:09.155Z,8.4
2023-05-17T21:04:15.520Z,8.4
2023-05-17T21:14:21.821Z,8.4
2023-05-17T21:34:36.136Z,8.4
2023-05-17T21:44:42.464Z,8.3
2023-05-17T21:54:48.817Z,8.2
2023-05-17T22:04:55.155Z,8.2
2023-05-17T22:15:01.509Z,8.2
2023-05-17T22:25:07.858Z,8.2
2023-05-17T22:35:14.219Z,8.2
2023-05-17T22:45:20.542Z,8.2
2023-05-17T22:55:26.906Z,8.2
2023-05-17T23:05:33.231Z,8.2
2023-05-17T23:15:39.571Z,8.1
2023-05-17T23:25:47.536Z,8.1
2023-05-17T23:35:55.492Z,8.1
2023-05-17T23:46:03.504Z,8.1
2023-05-17T23:56:11.360Z,8.1
